createdAt,value
2023-02-11T00:01:25.308Z,2.10
2023-02-11T00:03:53.730Z,2.20
2023-02-11T00:06:21.702Z,2.10
2023-02-11T00:08:49.528Z,2.90
2023-02-11T00:11:19.408Z,2.43
2023-02-11T00:13:49.315Z,1.87
2023-02-11T00:16:18.790Z,2.50
2023-02-11T00:18:47.490Z,2.57
2023-02-11T00:21:16.879Z,2.47
2023-02-11T00:23:45.879Z,2.33
2023-02-11T00:26:14.196Z,1.77
2023-02-11T00:28:42.173Z,1.87
2023-02-11T00:31:11.740Z,2.30
2023-02-11T00:33:39.581Z,1.97
2023-02-11T00:36:08.471Z,1.90
2023-02-11T00:38:36.206Z,1.83
2023-02-11T00:41:04.039Z,1.70
2023-02-11T00:43:31.744Z,2.17
2023-02-11T00:46:00.993Z,2.00
2023-02-11T00:48:30.224Z,2.23
2023-02-11T00:50:57.923Z,2.00
2023-02-11T00:53:26.381Z,2.67
2023-02-11T00:55:54.135Z,1.97
2023-02-11T00:58:22.503Z,2.10
2023-02-11T01:00:50.804Z,1.80
2023-02-11T01:03:18.503Z,2.07
2023-02-11T01:05:47.797Z,1.77
2023-02-11T01:08:15.680Z,2.70
2023-02-11T01:10:44.016Z,2.27
2023-02-11T01:13:11.878Z,1.90
2023-02-11T01:15:39.640Z,2.13
2023-02-11T01:18:07.538Z,1.73
2023-02-11T01:20:35.231Z,2.37
2023-02-11T01:23:04.352Z,2.00
2023-02-11T01:25:32.048Z,2.13
2023-02-11T01:27:59.773Z,2.27
2023-02-11T01:30:27.579Z,1.70
2023-02-11T01:32:55.317Z,2.20
2023-02-11T01:35:23.100Z,2.10
2023-02-11T01:37:50.854Z,2.37
2023-02-11T01:40:20.370Z,1.93
2023-02-11T01:42:50.912Z,2.30
2023-02-11T01:45:56.069Z,2.30
2023-02-11T01:48:28.694Z,2.03
2023-02-11T01:51:04.056Z,2.27
2023-02-11T01:53:51.255Z,2.03
2023-02-11T01:56:39.929Z,2.13
2023-02-11T01:59:14.322Z,1.87
2023-02-11T02:01:48.410Z,2.43
2023-02-11T02:04:20.012Z,2.40
2023-02-11T02:06:53.123Z,2.50
2023-02-11T02:09:24.704Z,2.40
2023-02-11T02:11:53.939Z,2.30
2023-02-11T02:14:21.785Z,2.00
2023-02-11T02:16:51.100Z,2.10
2023-02-11T02:19:50.242Z,2.67
2023-02-11T02:22:51.316Z,2.37
2023-02-11T02:26:03.843Z,2.37
2023-02-11T02:29:10.036Z,2.43
2023-02-11T02:31:53.987Z,2.30
2023-02-11T02:34:30.565Z,2.17
2023-02-11T02:37:06.803Z,2.13
2023-02-11T02:39:38.219Z,2.37
2023-02-11T02:42:06.624Z,3.03
2023-02-11T02:44:35.217Z,2.97
2023-02-11T02:47:02.989Z,2.63
2023-02-11T02:49:32.382Z,2.43
2023-02-11T02:52:10.518Z,2.33
2023-02-11T02:55:13.255Z,2.30
2023-02-11T02:58:01.183Z,2.20
2023-02-11T03:00:36.695Z,2.43
2023-02-11T03:03:22.575Z,2.00
2023-02-11T03:05:57.879Z,3.07
2023-02-11T03:08:30.544Z,2.40
2023-02-11T03:11:00.179Z,2.57
2023-02-11T03:13:33.528Z,2.73
2023-02-11T03:16:08.301Z,2.93
2023-02-11T03:18:38.293Z,2.40
2023-02-11T03:21:10.841Z,3.00
2023-02-11T03:23:42.984Z,2.60
2023-02-11T03:26:19.318Z,2.60
2023-02-11T03:28:55.778Z,2.97
2023-02-11T03:31:29.716Z,2.73
2023-02-11T03:34:03.337Z,2.37
2023-02-11T03:36:41.090Z,3.00
2023-02-11T03:39:12.041Z,2.83
2023-02-11T03:41:42.138Z,2.80
2023-02-11T03:44:11.655Z,3.00
2023-02-11T03:46:44.391Z,3.03
2023-02-11T03:49:16.378Z,3.30
2023-02-11T03:51:46.376Z,2.97
2023-02-11T03:54:17.830Z,3.10
2023-02-11T03:56:52.001Z,3.00
2023-02-11T03:59:20.102Z,3.23
2023-02-11T04:01:47.997Z,3.10
2023-02-11T04:04:16.023Z,3.40
2023-02-11T04:06:45.161Z,3.00
2023-02-11T04:09:13.076Z,3.53
2023-02-11T04:11:40.871Z,3.07
2023-02-11T04:14:08.670Z,2.97
2023-02-11T04:16:36.529Z,3.57
2023-02-11T04:19:04.315Z,3.43
2023-02-11T04:21:32.009Z,3.63
2023-02-11T04:24:01.181Z,3.20
2023-02-11T04:26:28.939Z,3.80
2023-02-11T04:28:56.690Z,3.83
2023-02-11T04:31:24.736Z,4.27
2023-02-11T04:33:52.680Z,3.60
2023-02-11T04:36:20.447Z,4.07
2023-02-11T04:38:48.339Z,3.80
2023-02-11T04:41:17.461Z,4.60
2023-02-11T04:43:45.237Z,4.00
2023-02-11T04:46:13.073Z,4.67
2023-02-11T04:48:40.878Z,4.87
2023-02-11T04:51:08.696Z,5.13
2023-02-11T04:53:36.623Z,5.43
2023-02-11T04:56:04.544Z,4.67
2023-02-11T04:58:33.687Z,4.67
2023-02-11T05:01:07.370Z,4.23
2023-02-11T05:03:35.516Z,4.53
2023-02-11T05:06:03.858Z,4.33
2023-02-11T05:08:31.988Z,4.57
2023-02-11T05:11:00.029Z,4.90
2023-02-11T05:13:27.771Z,5.37
2023-02-11T05:15:57.201Z,4.90
2023-02-11T05:18:25.062Z,4.80
2023-02-11T05:20:52.821Z,4.63
2023-02-11T05:23:20.594Z,5.57
2023-02-11T05:25:48.482Z,5.70
2023-02-11T05:28:16.459Z,5.30
2023-02-11T05:30:44.330Z,5.77
2023-02-11T05:33:13.662Z,5.73
2023-02-11T05:35:41.406Z,6.33
2023-02-11T05:38:09.215Z,6.67
2023-02-11T05:40:37.068Z,5.93
2023-02-11T05:43:04.805Z,7.07
2023-02-11T05:45:32.867Z,6.70
2023-02-11T05:48:01.229Z,7.03
2023-02-11T05:50:30.396Z,7.17
2023-02-11T05:52:58.161Z,6.53
2023-02-11T05:55:26.541Z,6.30
2023-02-11T05:57:54.295Z,7.03
2023-02-11T06:00:22.155Z,7.57
2023-02-11T06:02:50.087Z,6.70
2023-02-11T06:05:18.160Z,7.27
2023-02-11T06:07:47.314Z,6.10
2023-02-11T06:10:15.123Z,7.50
2023-02-11T06:12:42.957Z,6.97
2023-02-11T06:15:11.069Z,7.57
2023-02-11T06:17:38.787Z,7.77
2023-02-11T06:20:08.578Z,7.30
2023-02-11T06:22:36.625Z,8.03
2023-02-11T06:25:06.598Z,7.87
2023-02-11T06:27:34.361Z,7.13
2023-02-11T06:30:02.168Z,7.73
2023-02-11T06:32:43.270Z,7.53
2023-02-11T06:35:12.855Z,7.17
2023-02-11T06:37:40.708Z,8.07
2023-02-11T06:40:10.488Z,7.30
2023-02-11T06:42:39.640Z,8.40
2023-02-11T06:45:09.484Z,8.23
2023-02-11T06:47:37.374Z,8.43
2023-02-11T06:50:05.891Z,8.80
2023-02-11T06:52:33.852Z,8.10
2023-02-11T06:55:02.604Z,8.73
2023-02-11T06:57:32.869Z,8.73
2023-02-11T07:00:00.652Z,8.73
2023-02-11T07:02:28.447Z,8.43
2023-02-11T07:04:56.314Z,8.00
2023-02-11T07:07:24.343Z,8.70
2023-02-11T07:09:52.179Z,8.77
2023-02-11T07:12:19.954Z,9.43
2023-02-11T07:14:49.048Z,8.47
2023-02-11T07:17:16.874Z,8.77
2023-02-11T07:19:44.580Z,9.03
2023-02-11T07:22:12.312Z,8.47
2023-02-11T07:24:40.055Z,8.97
2023-02-11T07:27:07.793Z,8.10
2023-02-11T07:29:35.696Z,8.80
2023-02-11T07:32:04.857Z,8.73
2023-02-11T07:34:33.155Z,9.70
2023-02-11T07:37:01.019Z,8.80
2023-02-11T07:39:29.509Z,8.70
2023-02-11T07:41:57.565Z,8.60
2023-02-11T07:44:25.474Z,9.00
2023-02-11T07:46:53.437Z,9.13
2023-02-11T07:49:22.719Z,8.83
2023-02-11T07:51:51.416Z,8.30
2023-02-11T07:54:19.233Z,8.07
2023-02-11T07:56:47.094Z,7.63
2023-02-11T07:59:14.933Z,8.13
2023-02-11T08:01:42.697Z,8.40
2023-02-11T08:04:10.424Z,8.53
2023-02-11T08:06:43.726Z,8.90
2023-02-11T08:09:16.462Z,8.23
2023-02-11T08:11:45.302Z,8.13
2023-02-11T08:14:13.439Z,9.10
2023-02-11T08:16:41.524Z,9.07
2023-02-11T08:19:12.987Z,8.40
2023-02-11T08:21:42.659Z,8.53
2023-02-11T08:24:10.728Z,7.90
2023-02-11T08:26:39.076Z,7.90
2023-02-11T08:29:09.850Z,8.37
2023-02-11T08:31:40.347Z,8.60
2023-02-11T08:34:08.494Z,8.13
2023-02-11T08:36:38.319Z,8.77
2023-02-11T08:39:18.466Z,8.50
2023-02-11T08:41:48.791Z,7.47
2023-02-11T08:44:17.227Z,7.87
2023-02-11T08:46:44.941Z,8.13
2023-02-11T08:49:12.981Z,8.03
2023-02-11T08:51:41.087Z,8.40
2023-02-11T08:54:10.708Z,8.00
2023-02-11T08:56:39.309Z,8.07
2023-02-11T08:59:09.162Z,7.70
2023-02-11T09:01:37.120Z,8.13
2023-02-11T09:04:05.018Z,7.70
2023-02-11T09:06:33.012Z,7.63
2023-02-11T09:09:00.858Z,7.67
2023-02-11T09:11:32.967Z,7.27
2023-02-11T09:14:01.064Z,7.27
2023-02-11T09:16:31.251Z,7.13
2023-02-11T09:19:00.627Z,6.17
2023-02-11T09:21:29.859Z,7.10
2023-02-11T09:23:58.289Z,7.30
2023-02-11T09:26:28.673Z,6.97
2023-02-11T09:28:58.611Z,5.83
2023-02-11T09:31:28.172Z,7.10
2023-02-11T09:33:58.499Z,6.57
2023-02-11T09:36:28.790Z,6.40
2023-02-11T09:38:57.015Z,6.20
2023-02-11T09:41:36.708Z,7.17
2023-02-11T09:44:08.883Z,7.20
2023-02-11T09:46:41.176Z,6.93
2023-02-11T09:49:16.480Z,6.60
2023-02-11T09:51:48.805Z,6.90
2023-02-11T09:54:22.027Z,7.27
2023-02-11T09:56:49.865Z,7.30
2023-02-11T09:59:20.228Z,6.40
2023-02-11T10:01:51.987Z,6.70
2023-02-11T10:04:36.088Z,7.07
2023-02-11T10:07:13.850Z,6.60
2023-02-11T10:09:58.391Z,6.20
2023-02-11T10:12:53.413Z,6.33
2023-02-11T10:15:33.782Z,6.43
2023-02-11T10:18:19.160Z,6.73
2023-02-11T10:20:55.306Z,6.17
2023-02-11T10:23:26.173Z,6.97
2023-02-11T10:25:56.650Z,6.97
2023-02-11T10:28:30.146Z,7.57
2023-02-11T10:31:01.960Z,6.23
2023-02-11T10:33:34.244Z,7.07
2023-02-11T10:36:02.015Z,7.00
2023-02-11T10:38:30.000Z,6.40
2023-02-11T10:40:57.840Z,7.27
2023-02-11T10:43:28.864Z,6.30
2023-02-11T10:46:00.502Z,6.73
2023-02-11T10:48:42.826Z,6.83
2023-02-11T10:51:19.365Z,6.93
2023-02-11T10:53:48.250Z,6.67
2023-02-11T10:56:25.075Z,6.30
2023-02-11T10:58:59.894Z,5.77
2023-02-11T11:01:42.115Z,7.43
2023-02-11T11:04:34.344Z,6.87
2023-02-11T11:07:17.638Z,6.40
2023-02-11T11:09:49.452Z,6.23
2023-02-11T11:12:30.171Z,6.80
2023-02-11T11:14:59.527Z,5.67
2023-02-11T11:17:29.581Z,5.47
2023-02-11T11:20:32.370Z,6.00
2023-02-11T11:23:13.124Z,5.87
2023-02-11T11:25:43.802Z,5.60
2023-02-11T11:28:22.875Z,6.63
2023-02-11T11:30:53.124Z,5.83
2023-02-11T11:33:26.117Z,6.17
2023-02-11T11:36:00.870Z,6.03
2023-02-11T11:38:29.621Z,5.77
2023-02-11T11:41:19.289Z,6.07
2023-02-11T11:44:05.336Z,5.73
2023-02-11T11:46:36.290Z,5.73
2023-02-11T11:49:24.547Z,5.40
2023-02-11T11:51:59.732Z,5.67
2023-02-11T11:54:29.656Z,5.47
2023-02-11T11:57:02.594Z,6.03
2023-02-11T11:59:31.297Z,5.87
2023-02-11T12:02:22.821Z,6.13
2023-02-11T12:05:02.341Z,5.70
2023-02-11T12:07:43.244Z,5.77
2023-02-11T12:10:49.017Z,5.53
2023-02-11T12:13:29.604Z,5.93
2023-02-11T12:16:11.069Z,5.63
2023-02-11T12:18:55.091Z,6.13
2023-02-11T12:21:34.584Z,5.53
2023-02-11T12:24:24.221Z,6.10
2023-02-11T12:27:00.642Z,6.77
2023-02-11T12:29:35.649Z,5.67
2023-02-11T12:32:16.894Z,6.37
2023-02-11T12:35:18.427Z,6.13
2023-02-11T12:38:05.800Z,5.53
2023-02-11T12:40:44.628Z,5.93
2023-02-11T12:43:21.984Z,6.23
2023-02-11T12:46:00.713Z,5.90
2023-02-11T12:48:44.520Z,5.93
2023-02-11T12:51:23.526Z,5.70
2023-02-11T12:54:17.817Z,6.17
2023-02-11T12:56:52.999Z,6.00
2023-02-11T12:59:35.965Z,5.83
2023-02-11T13:02:13.895Z,5.50
2023-02-11T13:04:48.208Z,5.30
2023-02-11T13:07:22.584Z,4.67
2023-02-11T13:09:58.195Z,4.80
2023-02-11T13:12:45.543Z,4.97
2023-02-11T13:15:16.584Z,4.33
2023-02-11T13:17:54.576Z,4.37
2023-02-11T13:20:31.374Z,4.60
2023-02-11T13:23:08.764Z,4.30
2023-02-11T13:25:45.426Z,4.67
2023-02-11T13:28:26.651Z,4.07
2023-02-11T13:31:02.536Z,4.30
2023-02-11T13:33:36.191Z,4.60
2023-02-11T13:36:26.632Z,4.40
2023-02-11T13:39:01.135Z,3.50
2023-02-11T13:41:41.623Z,3.63
2023-02-11T13:44:26.457Z,3.67
2023-02-11T13:46:58.280Z,4.00
2023-02-11T13:49:31.010Z,3.83
2023-02-11T13:51:59.992Z,4.10
2023-02-11T13:54:32.287Z,3.03
2023-02-11T13:57:28.950Z,3.10
2023-02-11T13:59:57.804Z,3.33
2023-02-11T14:02:47.139Z,2.67
2023-02-11T14:05:45.690Z,2.67
2023-02-11T14:08:39.898Z,2.50
2023-02-11T14:11:12.797Z,2.60
2023-02-11T14:14:04.483Z,2.80
2023-02-11T14:16:38.399Z,2.67
2023-02-11T14:19:07.225Z,2.30
2023-02-11T14:21:38.600Z,1.90
2023-02-11T14:24:43.798Z,2.40
2023-02-11T14:27:16.211Z,2.03
2023-02-11T14:29:54.733Z,2.20
2023-02-11T14:32:39.022Z,2.30
2023-02-11T14:35:15.181Z,2.43
2023-02-11T14:37:53.328Z,2.30
2023-02-11T14:40:30.936Z,1.97
2023-02-11T14:43:06.322Z,2.40
2023-02-11T14:45:37.962Z,2.47
2023-02-11T14:48:09.251Z,2.43
2023-02-11T14:50:42.986Z,2.33
2023-02-11T14:53:16.365Z,2.47
2023-02-11T14:55:47.320Z,2.10
2023-02-11T14:58:17.683Z,2.27
2023-02-11T15:00:54.969Z,2.57
2023-02-11T15:03:28.464Z,2.47
2023-02-11T15:05:58.236Z,2.70
2023-02-11T15:08:26.226Z,2.70
2023-02-11T15:10:55.427Z,2.40
2023-02-11T15:13:30.979Z,2.67
2023-02-11T15:16:10.125Z,2.60
2023-02-11T15:18:42.044Z,2.77
2023-02-11T15:21:10.880Z,2.33
2023-02-11T15:23:38.943Z,2.30
2023-02-11T15:26:15.215Z,2.97
2023-02-11T15:28:52.493Z,2.30
2023-02-11T15:31:24.478Z,2.93
2023-02-11T15:33:53.165Z,2.30
2023-02-11T15:36:28.174Z,2.17
2023-02-11T15:39:18.528Z,2.50
2023-02-11T15:41:46.428Z,2.37
2023-02-11T15:44:30.628Z,2.37
2023-02-11T15:47:00.060Z,2.07
2023-02-11T15:49:28.497Z,2.37
2023-02-11T15:51:58.063Z,2.30
2023-02-11T15:54:29.493Z,2.60
2023-02-11T15:57:03.780Z,2.20
2023-02-11T15:59:38.185Z,2.37
2023-02-11T16:02:19.674Z,2.23
2023-02-11T16:04:52.964Z,2.50
2023-02-11T16:07:43.977Z,2.23
2023-02-11T16:10:23.728Z,2.40
2023-02-11T16:12:56.604Z,2.73
2023-02-11T16:15:45.177Z,2.20
2023-02-11T16:18:37.313Z,2.20
2023-02-11T16:21:08.341Z,2.40
2023-02-11T16:23:39.076Z,2.80
2023-02-11T16:26:11.036Z,2.00
2023-02-11T16:28:39.268Z,2.60
2023-02-11T16:31:09.693Z,2.60
2023-02-11T16:33:38.953Z,2.27
2023-02-11T16:36:13.286Z,2.23
2023-02-11T16:38:42.556Z,2.60
2023-02-11T16:41:11.869Z,2.23
2023-02-11T16:43:40.003Z,2.33
2023-02-11T16:46:09.219Z,2.40
2023-02-11T16:48:39.076Z,2.47
2023-02-11T16:51:09.347Z,2.40
2023-02-11T16:53:37.131Z,2.33
2023-02-11T16:56:05.422Z,2.60
2023-02-11T16:58:33.705Z,2.50
2023-02-11T17:01:02.045Z,2.60
2023-02-11T17:03:31.296Z,2.20
2023-02-11T17:06:02.884Z,2.37
2023-02-11T17:08:30.743Z,2.90
2023-02-11T17:10:58.520Z,2.67
2023-02-11T17:13:26.532Z,2.60
2023-02-11T17:15:54.737Z,2.47
2023-02-11T17:18:22.616Z,2.63
2023-02-11T17:20:50.449Z,2.30
2023-02-11T17:23:19.586Z,2.50
2023-02-11T17:25:47.274Z,2.63
2023-02-11T17:28:15.078Z,3.73
2023-02-11T17:30:44.180Z,2.57
2023-02-11T17:33:12.019Z,2.30
2023-02-11T17:35:41.599Z,2.27
2023-02-11T17:38:09.354Z,2.57
2023-02-11T17:40:38.442Z,2.80
2023-02-11T17:43:06.182Z,2.93
2023-02-11T17:45:33.938Z,2.40
2023-02-11T17:48:01.821Z,2.50
2023-02-11T17:50:29.807Z,2.57
2023-02-11T17:52:57.995Z,2.73
2023-02-11T17:55:25.758Z,3.00
2023-02-11T17:57:55.437Z,2.33
2023-02-11T18:00:23.813Z,3.00
2023-02-11T18:02:51.681Z,2.97
2023-02-11T18:05:19.549Z,2.80
2023-02-11T18:07:48.472Z,2.80
2023-02-11T18:10:16.359Z,2.90
2023-02-11T18:12:44.426Z,2.60
2023-02-11T18:15:13.921Z,3.20
2023-02-11T18:17:41.699Z,2.77
2023-02-11T18:20:10.610Z,2.80
2023-02-11T18:22:40.912Z,3.27
2023-02-11T18:25:09.596Z,3.07
2023-02-11T18:27:37.343Z,2.50
2023-02-11T18:30:05.698Z,3.07
2023-02-11T18:32:34.847Z,2.73
2023-02-11T18:35:02.685Z,2.70
2023-02-11T18:37:30.537Z,2.83
2023-02-11T18:39:58.354Z,2.97
2023-02-11T18:42:26.126Z,3.20
2023-02-11T18:44:53.963Z,2.87
2023-02-11T18:47:21.659Z,2.73
2023-02-11T18:49:50.838Z,2.93
2023-02-11T18:52:18.633Z,2.97
2023-02-11T18:54:46.488Z,2.60
2023-02-11T18:57:14.210Z,2.20
2023-02-11T18:59:42.881Z,2.97
2023-02-11T19:02:11.604Z,2.20
2023-02-11T19:04:39.380Z,2.37
2023-02-11T19:07:08.670Z,2.50
2023-02-11T19:09:36.543Z,1.90
2023-02-11T19:12:07.015Z,2.20
2023-02-11T19:14:34.974Z,2.30
2023-02-11T19:17:05.287Z,2.00
2023-02-11T19:19:35.501Z,2.10
2023-02-11T19:22:08.533Z,2.60
2023-02-11T19:24:39.909Z,2.53
2023-02-11T19:27:07.611Z,2.93
2023-02-11T19:29:35.474Z,3.20
2023-02-11T19:32:03.524Z,4.10
2023-02-11T19:34:31.283Z,4.03
2023-02-11T19:37:01.744Z,3.60
2023-02-11T19:39:29.673Z,3.47
2023-02-11T19:41:58.968Z,3.33
2023-02-11T19:44:26.684Z,3.07
2023-02-11T19:46:54.807Z,3.47
2023-02-11T19:49:25.825Z,2.90
2023-02-11T19:51:54.446Z,3.93
2023-02-11T19:54:22.572Z,3.50
2023-02-11T19:56:50.319Z,3.63
2023-02-11T19:59:19.999Z,3.40
2023-02-11T20:01:49.105Z,3.03
2023-02-11T20:04:18.102Z,2.83
2023-02-11T20:06:48.047Z,2.47
2023-02-11T20:09:16.480Z,2.70
2023-02-11T20:11:44.254Z,2.50
2023-02-11T20:14:14.734Z,2.30
2023-02-11T20:16:49.219Z,2.30
2023-02-11T20:19:18.762Z,2.40
2023-02-11T20:21:48.634Z,2.20
2023-02-11T20:24:16.854Z,2.37
2023-02-11T20:26:46.839Z,2.80
2023-02-11T20:29:15.303Z,3.57
2023-02-11T20:31:44.716Z,3.27
2023-02-11T20:34:12.897Z,3.43
2023-02-11T20:36:40.933Z,3.97
2023-02-11T20:39:09.138Z,4.00
2023-02-11T20:41:39.869Z,4.37
2023-02-11T20:44:09.873Z,4.20
2023-02-11T20:46:40.837Z,4.47
2023-02-11T20:49:12.906Z,5.27
2023-02-11T20:51:41.237Z,5.27
2023-02-11T20:54:13.019Z,6.03
2023-02-11T20:56:40.966Z,4.97
2023-02-11T20:59:09.014Z,4.93
2023-02-11T21:01:40.376Z,4.43
2023-02-11T21:04:12.548Z,4.53
2023-02-11T21:06:43.465Z,4.17
2023-02-11T21:09:15.215Z,4.07
2023-02-11T21:11:43.152Z,3.83
2023-02-11T21:14:12.019Z,3.00
2023-02-11T21:16:39.882Z,3.63
2023-02-11T21:19:08.042Z,3.40
2023-02-11T21:21:38.128Z,3.63
2023-02-11T21:24:06.557Z,3.77
2023-02-11T21:26:35.371Z,3.83
2023-02-11T21:29:03.265Z,3.40
2023-02-11T21:31:33.413Z,3.53
2023-02-11T21:34:01.639Z,3.27
2023-02-11T21:36:30.990Z,3.40
2023-02-11T21:39:01.734Z,3.67
2023-02-11T21:41:29.668Z,3.77
2023-02-11T21:43:57.722Z,3.60
2023-02-11T21:46:25.868Z,4.03
2023-02-11T21:48:53.894Z,3.60
2023-02-11T21:51:23.946Z,3.67
2023-02-11T21:53:54.424Z,3.57
2023-02-11T21:56:24.068Z,3.60
2023-02-11T21:58:54.089Z,3.13
2023-02-11T22:01:23.868Z,3.50
2023-02-11T22:03:51.769Z,2.97
2023-02-11T22:06:22.262Z,3.60
2023-02-11T22:08:50.780Z,3.10
2023-02-11T22:11:18.878Z,3.37
2023-02-11T22:13:48.428Z,3.60
2023-02-11T22:16:17.750Z,3.33
2023-02-11T22:18:46.509Z,3.00
2023-02-11T22:21:18.512Z,3.53
2023-02-11T22:23:46.452Z,3.30
2023-02-11T22:26:15.949Z,3.37
2023-02-11T22:28:44.789Z,2.80
2023-02-11T22:31:15.981Z,3.23
2023-02-11T22:33:44.694Z,3.50
2023-02-11T22:36:16.741Z,4.10
2023-02-11T22:38:44.609Z,3.43
2023-02-11T22:41:13.646Z,3.50
2023-02-11T22:43:43.180Z,3.47
2023-02-11T22:46:15.634Z,3.63
2023-02-11T22:48:43.965Z,3.50
2023-02-11T22:51:13.913Z,3.30
2023-02-11T22:53:42.162Z,3.60
2023-02-11T22:56:15.341Z,3.10
2023-02-11T22:58:44.104Z,3.80
2023-02-11T23:01:14.358Z,3.70
2023-02-11T23:03:42.707Z,4.17
2023-02-11T23:06:11.562Z,4.17
2023-02-11T23:08:40.371Z,4.00
2023-02-11T23:11:10.218Z,3.73
2023-02-11T23:13:40.311Z,3.97
2023-02-11T23:16:10.558Z,3.50
2023-02-11T23:18:41.991Z,3.70
2023-02-11T23:21:12.905Z,4.07
2023-02-11T23:23:41.127Z,3.80
2023-02-11T23:26:11.457Z,3.70
2023-02-11T23:28:39.742Z,3.67
2023-02-11T23:31:15.425Z,3.80
2023-02-11T23:33:45.243Z,4.03
2023-02-11T23:36:14.007Z,3.70
2023-02-11T23:38:41.825Z,3.73
2023-02-11T23:41:10.619Z,3.07
2023-02-11T23:43:38.570Z,2.80
2023-02-11T23:46:07.469Z,2.93
2023-02-11T23:48:36.020Z,3.00
2023-02-11T23:51:05.429Z,2.67
2023-02-11T23:53:33.303Z,3.03
2023-02-11T23:56:00.985Z,3.30
2023-02-11T23:58:28.713Z,2.90
